Time;durP1;ratioP1;P1;durP2;ratioP2;P2;SDS_P1;SDS_P2;PMS_P1;PMS_P2;Temp;Humidity;BMP_temperature;BMP_pressure;BME280_temperature;BME280_humidity;BME280_pressure;Samples;Min_cycle;Max_cycle;Signal;HPM_P1;HPM_P2
2022/09/21 03:03:33;;;;;;;3.40;2.80;;;;;;;8.73;65.24;101840.38;4948742;23;20038;-74
2022/09/21 03:06:01;;;;;;;9.90;3.20;;;;;;;8.79;64.96;101845.25;4990230;28;20046;-73
2022/09/21 03:08:27;;;;;;;6.60;3.20;;;;;;;8.65;65.35;101847.31;4971663;28;20043;-73
2022/09/21 03:10:54;;;;;;;6.88;2.92;;;;;;;8.63;65.58;101852.75;4977120;28;20050;-74
2022/09/21 03:13:20;;;;;;;10.50;3.55;;;;;;;8.60;65.80;101853.84;4990583;28;20424;-74
2022/09/21 03:15:47;;;;;;;7.68;3.08;;;;;;;8.60;65.53;101851.16;4991245;28;20046;-74
2022/09/21 03:18:14;;;;;;;8.77;3.50;;;;;;;8.59;65.81;101849.47;4991772;28;20054;-74
2022/09/21 03:20:46;;;;;;;5.78;2.85;;;;;;;8.52;65.66;101845.56;4990940;28;20445;-71
2022/09/21 03:23:13;;;;;;;6.88;2.60;;;;;;;8.51;65.38;101854.59;4990060;28;20046;-70
2022/09/21 03:25:44;;;;;;;5.22;2.88;;;;;;;8.81;65.78;101853.13;4991343;28;20046;-69
2022/09/21 03:28:12;;;;;;;6.60;3.10;;;;;;;8.78;64.72;101854.25;4991122;28;20054;-69
2022/09/21 03:30:39;;;;;;;5.38;3.15;;;;;;;8.73;65.43;101850.22;4991759;28;20133;-72
2022/09/21 03:33:07;;;;;;;7.78;2.97;;;;;;;8.71;65.31;101845.00;4989709;28;20058;-71
2022/09/21 03:35:33;;;;;;;7.45;2.97;;;;;;;8.70;65.21;101845.97;4989285;28;20050;-71
2022/09/21 03:38:00;;;;;;;8.10;3.50;;;;;;;8.60;65.55;101850.31;4972204;28;20498;-73
2022/09/21 03:40:27;;;;;;;6.00;3.03;;;;;;;8.63;65.73;101849.25;4990002;28;20042;-73
2022/09/21 03:42:54;;;;;;;6.72;3.20;;;;;;;8.57;65.60;101850.56;4993956;28;20045;-73
2022/09/21 03:45:21;;;;;;;5.78;3.45;;;;;;;8.58;65.83;101854.97;4992354;28;20054;-73
2022/09/21 03:47:47;;;;;;;5.20;3.30;;;;;;;8.47;65.87;101858.47;4994541;28;20038;-72
2022/09/21 03:50:14;;;;;;;9.07;3.03;;;;;;;8.44;65.60;101850.69;4994142;28;20414;-74
2022/09/21 03:52:41;;;;;;;7.57;3.13;;;;;;;8.48;66.08;101857.50;4984601;28;20046;-74
2022/09/21 03:55:08;;;;;;;10.77;3.50;;;;;;;8.51;65.87;101851.06;4994460;28;20046;-73
2022/09/21 03:57:35;;;;;;;5.32;3.05;;;;;;;8.58;65.86;101852.28;4993766;28;20508;-74
2022/09/21 04:00:05;;;;;;;9.90;3.00;;;;;;;8.53;65.81;101849.09;4993929;28;20050;-71
2022/09/21 04:02:31;;;;;;;7.05;3.08;;;;;;;8.53;65.78;101855.28;5001765;28;20045;-73
2022/09/21 04:04:58;;;;;;;8.50;3.00;;;;;;;8.38;66.04;101851.16;5013773;28;20057;-74
2022/09/21 04:07:25;;;;;;;7.50;2.95;;;;;;;8.50;65.27;101860.88;5013386;28;20048;-74
2022/09/21 04:09:52;;;;;;;7.00;3.80;;;;;;;8.49;65.52;101853.00;5012187;28;20053;-74
2022/09/21 04:12:22;;;;;;;7.63;2.95;;;;;;;8.52;65.63;101858.94;4994091;28;20512;-73
2022/09/21 04:14:48;;;;;;;4.55;3.50;;;;;;;8.51;65.52;101856.41;4994081;28;20126;-74
2022/09/21 04:17:15;;;;;;;4.60;2.90;;;;;;;8.53;65.40;101865.16;4994144;28;20391;-74
2022/09/21 04:19:43;;;;;;;10.35;3.25;;;;;;;8.53;65.22;101857.97;4993130;28;20046;-73
2022/09/21 04:22:11;;;;;;;7.68;3.33;;;;;;;8.50;65.68;101868.06;4994302;28;20049;-73
2022/09/21 04:24:40;;;;;;;7.47;3.47;;;;;;;8.49;65.53;101872.56;4994076;28;20052;-73
2022/09/21 04:27:08;;;;;;;7.10;3.75;;;;;;;8.48;65.69;101867.34;4994306;28;20050;-74
2022/09/21 04:29:35;;;;;;;6.85;3.70;;;;;;;8.46;65.71;101869.28;4994003;28;20418;-74
2022/09/21 04:32:03;;;;;;;9.27;3.78;;;;;;;8.47;65.30;101871.84;4994922;28;20048;-73
2022/09/21 04:34:30;;;;;;;5.65;4.00;;;;;;;8.49;65.67;101871.72;4993597;28;20050;-74
2022/09/21 04:36:57;;;;;;;23.00;4.50;;;;;;;8.47;65.30;101866.50;4993971;28;20046;-74
2022/09/21 04:39:25;;;;;;;7.95;4.00;;;;;;;8.44;65.76;101868.56;4993454;28;20057;-74
2022/09/21 04:41:51;;;;;;;8.00;3.97;;;;;;;8.41;65.66;101866.97;4993098;28;20417;-74
2022/09/21 04:44:18;;;;;;;10.15;4.50;;;;;;;8.38;65.50;101862.69;4992982;28;20054;-74
2022/09/21 04:46:44;;;;;;;9.50;3.97;;;;;;;8.41;65.59;101863.44;4991990;28;20509;-74
2022/09/21 04:49:11;;;;;;;8.75;3.90;;;;;;;8.43;65.74;101862.31;4993290;28;20061;-73
2022/09/21 04:51:37;;;;;;;6.00;3.50;;;;;;;8.35;65.64;101862.06;4992843;28;20050;-73
2022/09/21 04:54:05;;;;;;;8.73;4.22;;;;;;;8.37;65.44;101866.34;4993542;28;20051;-73
2022/09/21 04:56:31;;;;;;;8.48;3.90;;;;;;;8.42;65.67;101873.16;4975959;28;20066;-74
2022/09/21 04:58:58;;;;;;;13.50;3.60;;;;;;;8.44;65.50;101877.44;4993568;28;20046;-73
2022/09/21 05:01:25;;;;;;;9.50;3.90;;;;;;;8.33;65.29;101870.22;4993920;28;20046;-73
2022/09/21 05:03:51;;;;;;;9.95;4.40;;;;;;;8.31;65.67;101873.97;4983636;28;20038;-73
2022/09/21 05:06:18;;;;;;;9.52;4.22;;;;;;;8.25;65.81;101871.78;4992212;28;20054;-74
2022/09/21 05:11:29;;;;;;;14.10;7.82;;;;;;;8.33;65.45;101877.38;4993384;28;20050;-74
2022/09/21 05:13:56;;;;;;;14.07;6.65;;;;;;;8.37;65.72;101886.88;4993742;28;20061;-74
2022/09/21 05:16:22;;;;;;;8.88;5.70;;;;;;;8.35;65.52;101887.00;5012434;28;20050;-74
2022/09/21 05:18:53;;;;;;;7.40;4.22;;;;;;;8.32;65.71;101889.03;5013093;28;20050;-74
2022/09/21 05:21:20;;;;;;;7.25;4.18;;;;;;;8.33;65.84;101896.97;5012739;28;20053;-74
2022/09/21 05:23:47;;;;;;;9.90;4.45;;;;;;;8.42;65.65;101898.06;5012939;28;20049;-74
2022/09/21 05:26:13;;;;;;;9.43;4.18;;;;;;;8.37;65.48;101897.59;5011983;28;20054;-74
2022/09/21 05:28:40;;;;;;;6.82;4.28;;;;;;;8.41;65.71;101900.88;5012222;28;20054;-73
2022/09/21 05:31:25;;;;;;;9.45;4.22;;;;;;;8.40;65.84;101908.06;5012314;28;20409;-73
2022/09/21 05:34:20;;;;;;;15.23;4.75;;;;;;;8.36;65.50;101910.09;5012913;28;20133;-73
2022/09/21 05:36:49;;;;;;;12.90;4.90;;;;;;;8.47;65.03;101909.28;5012180;28;20042;-73
2022/09/21 05:39:15;;;;;;;6.57;3.75;;;;;;;8.56;64.69;101908.56;5011962;28;20050;-74
2022/09/21 05:41:42;;;;;;;14.15;4.47;;;;;;;8.56;64.89;101913.06;5012649;28;20053;-74
2022/09/21 05:44:12;;;;;;;10.98;5.05;;;;;;;8.58;64.93;101913.81;5012860;28;20054;-75
2022/09/21 05:46:41;;;;;;;17.70;5.38;;;;;;;8.53;65.01;101914.13;5012091;28;20046;-74
2022/09/21 05:49:16;;;;;;;9.00;4.93;;;;;;;8.59;65.30;101919.03;5012705;28;20519;-74
2022/09/21 05:52:08;;;;;;;9.98;4.10;;;;;;;8.62;65.03;101915.28;5012238;28;20056;-75
2022/09/21 05:54:56;;;;;;;16.80;4.25;;;;;;;8.75;65.20;101915.19;5010314;28;20056;-74
2022/09/21 05:57:41;;;;;;;10.98;4.50;;;;;;;8.81;65.06;101920.03;5011935;28;20054;-74
2022/09/21 06:00:18;;;;;;;10.70;4.60;;;;;;;8.89;64.58;101922.13;5010613;28;20054;-72
2022/09/21 06:03:06;;;;;;;8.40;3.70;;;;;;;8.89;64.82;101919.47;5009660;28;20064;-75
2022/09/21 06:05:32;;;;;;;12.45;4.15;;;;;;;8.94;64.41;101917.25;5010594;28;20050;-73
2022/09/21 06:07:59;;;;;;;8.93;4.38;;;;;;;9.04;64.61;101912.88;5010830;28;20046;-74
2022/09/21 06:10:28;;;;;;;6.25;3.80;;;;;;;9.12;64.64;101914.94;5009961;28;20041;-74
2022/09/21 06:12:55;;;;;;;8.10;4.43;;;;;;;9.17;64.31;101918.13;5010090;28;20046;-75
2022/09/21 06:15:21;;;;;;;8.18;4.07;;;;;;;9.25;64.12;101916.56;5011018;28;20057;-74
2022/09/21 06:17:48;;;;;;;15.20;4.28;;;;;;;9.39;64.32;101914.63;5010711;28;20053;-75
2022/09/21 06:20:14;;;;;;;8.60;6.88;;;;;;;9.44;63.64;101912.41;5009970;28;20523;-74
2022/09/21 06:22:41;;;;;;;12.95;7.80;;;;;;;9.61;63.54;101921.75;5010576;28;20050;-75
2022/09/21 06:25:07;;;;;;;9.98;7.57;;;;;;;9.77;63.48;101928.44;5010664;28;20448;-73
2022/09/21 06:27:34;;;;;;;11.35;7.55;;;;;;;9.87;63.16;101927.69;5011252;28;20117;-76
2022/09/21 06:30:01;;;;;;;24.98;11.82;;;;;;;9.93;62.38;101919.16;5009437;28;20048;-75
2022/09/21 06:32:27;;;;;;;20.77;9.07;;;;;;;9.90;62.89;101925.59;5010961;28;20494;-75
2022/09/21 06:34:54;;;;;;;12.20;5.75;;;;;;;10.06;62.37;101929.69;5009497;28;20050;-75
2022/09/21 06:37:20;;;;;;;8.15;5.15;;;;;;;9.89;62.03;101925.72;5009641;28;20054;-75
2022/09/21 06:39:47;;;;;;;9.32;4.50;;;;;;;9.96;61.95;101930.47;5009959;28;20050;-75
2022/09/21 06:42:13;;;;;;;11.90;4.32;;;;;;;10.08;62.28;101942.00;5010508;28;20433;-75
2022/09/21 06:44:40;;;;;;;17.08;4.90;;;;;;;10.29;62.05;101928.63;5009810;28;20120;-75
2022/09/21 06:47:07;;;;;;;10.77;3.75;;;;;;;10.36;61.91;101931.63;5011472;28;20413;-75
2022/09/21 06:49:34;;;;;;;13.10;3.75;;;;;;;10.32;62.31;101938.25;5011440;28;20049;-75
2022/09/21 06:52:07;;;;;;;11.73;3.08;;;;;;;10.42;62.32;101942.72;5001920;28;20050;-76
2022/09/21 06:54:33;;;;;;;10.38;3.95;;;;;;;10.48;62.21;101944.88;5010926;28;20527;-76
2022/09/21 06:57:00;;;;;;;6.65;4.22;;;;;;;10.62;61.78;101950.94;5010809;28;20034;-76
2022/09/21 06:59:26;;;;;;;10.20;3.65;;;;;;;10.60;61.98;101952.91;5010166;28;20058;-75
2022/09/21 07:01:54;;;;;;;10.70;4.18;;;;;;;10.72;61.79;101949.16;5000139;28;20042;-75
2022/09/21 07:04:23;;;;;;;6.03;3.85;;;;;;;10.66;61.67;101955.06;5010435;28;20056;-76
2022/09/21 07:06:50;;;;;;;9.00;3.60;;;;;;;10.55;61.71;101953.28;5010845;28;20053;-76
2022/09/21 07:09:18;;;;;;;12.90;3.75;;;;;;;10.79;61.60;101963.78;5010256;28;20054;-76
2022/09/21 07:12:05;;;;;;;6.25;3.92;;;;;;;10.95;61.54;101956.09;5010879;28;20046;-76
2022/09/21 07:14:32;;;;;;;15.20;4.45;;;;;;;10.83;61.17;101957.16;5009972;28;20049;-76
2022/09/21 07:16:59;;;;;;;9.68;4.68;;;;;;;11.06;61.25;101962.34;5013875;28;20046;-76
2022/09/21 07:19:25;;;;;;;11.15;4.60;;;;;;;11.16;60.89;101961.41;5013293;28;20049;-76
2022/09/21 07:21:53;;;;;;;9.10;4.07;;;;;;;11.18;61.00;101970.22;5013971;28;20046;-75
2022/09/21 07:24:19;;;;;;;8.30;4.20;;;;;;;11.34;60.98;101969.69;5014077;28;20045;-75
2022/09/21 07:26:46;;;;;;;14.82;4.47;;;;;;;11.43;60.32;101963.53;5013604;28;20045;-75
2022/09/21 07:29:12;;;;;;;8.35;4.68;;;;;;;11.57;59.77;101969.53;5014819;28;20100;-75
2022/09/21 07:31:42;;;;;;;15.35;6.18;;;;;;;11.66;59.93;101968.75;5014685;28;20049;-76
2022/09/21 07:34:10;;;;;;;9.23;4.97;;;;;;;11.61;59.52;101969.09;5016404;28;20494;-76
2022/09/21 07:36:41;;;;;;;20.95;4.22;;;;;;;11.83;59.73;101973.47;5016866;28;20152;-77
2022/09/21 07:39:09;;;;;;;11.25;4.60;;;;;;;11.86;59.51;101961.56;5004919;28;20046;-76
2022/09/21 07:41:36;;;;;;;10.57;4.32;;;;;;;11.69;60.07;101961.25;5014021;28;20046;-76
2022/09/21 07:44:03;;;;;;;14.20;4.03;;;;;;;11.58;60.06;101958.63;5014589;28;20054;-76
2022/09/21 07:46:29;;;;;;;13.45;4.75;;;;;;;11.88;59.13;101965.81;5012555;28;20390;-76
2022/09/21 07:48:56;;;;;;;12.50;4.88;;;;;;;12.01;58.83;101965.56;5003281;28;20056;-76
2022/09/21 07:51:23;;;;;;;10.40;4.20;;;;;;;12.00;59.17;101965.69;4990382;28;20049;-76
2022/09/21 07:53:57;;;;;;;11.63;3.83;;;;;;;11.91;58.84;101967.38;5013350;28;20046;-75
2022/09/21 07:56:24;;;;;;;18.13;9.27;;;;;;;11.90;59.18;101966.53;5003770;28;20060;-76
2022/09/21 07:59:06;;;;;;;14.35;6.00;;;;;;;12.23;58.56;101971.66;5013217;28;20050;-76
2022/09/21 08:01:37;;;;;;;;;;;;;;;12.58;57.64;101966.56;5013346;28;20053;-76
2022/09/21 08:04:06;;;;;;;13.20;5.75;;;;;;;13.40;55.86;101972.34;5012735;28;19922;-76
2022/09/21 08:06:34;;;;;;;12.30;4.63;;;;;;;14.71;53.71;101969.22;5012891;28;20061;-76
2022/09/21 08:09:02;;;;;;;6.93;3.67;;;;;;;15.60;50.03;101977.00;5011764;28;20041;-76
2022/09/21 08:11:32;;;;;;;14.30;6.20;;;;;;;16.57;47.58;101974.72;5011957;28;20053;-75
2022/09/21 08:14:01;;;;;;;13.68;8.75;;;;;;;16.27;47.70;101978.94;5012965;28;20061;-75
2022/09/21 08:16:29;;;;;;;8.75;5.50;;;;;;;15.88;48.91;101968.69;5011918;28;20053;-75
2022/09/21 08:18:56;;;;;;;11.30;4.68;;;;;;;15.33;49.94;101974.50;5010581;28;20460;-76
2022/09/21 08:21:22;;;;;;;11.02;3.47;;;;;;;15.73;49.46;101975.75;5013111;28;20060;-76
2022/09/21 08:23:49;;;;;;;7.63;4.25;;;;;;;16.07;49.08;101972.97;5012458;28;20046;-75
2022/09/21 08:26:18;;;;;;;10.80;4.03;;;;;;;15.77;48.95;101974.41;5012233;28;20513;-75
2022/09/21 08:28:49;;;;;;;9.95;3.88;;;;;;;15.73;49.23;101976.59;5012837;28;20050;-75
2022/09/21 08:31:19;;;;;;;8.77;4.40;;;;;;;15.71;49.52;101974.06;5011637;28;20050;-75
2022/09/21 08:33:47;;;;;;;8.77;3.58;;;;;;;15.57;49.99;101980.06;5011843;28;20402;-75
2022/09/21 08:36:13;;;;;;;6.03;3.33;;;;;;;15.28;50.28;101976.84;5011984;28;20050;-75
2022/09/21 08:38:40;;;;;;;8.10;3.60;;;;;;;15.32;50.66;101983.63;5013145;28;20053;-76
2022/09/21 08:41:35;;;;;;;19.48;3.72;;;;;;;15.08;51.55;101973.53;5012730;28;20053;-75
2022/09/21 08:44:09;;;;;;;5.28;3.33;;;;;;;15.07;51.89;101979.94;5009495;28;20458;-75
2022/09/21 08:46:37;;;;;;;4.05;2.63;;;;;;;15.00;51.57;101985.13;5012879;28;20409;-75
2022/09/21 08:49:14;;;;;;;11.52;2.70;;;;;;;14.80;52.06;101983.63;5011652;28;20057;-76
2022/09/21 08:51:54;;;;;;;6.15;3.05;;;;;;;14.99;52.21;101983.44;5011954;28;20050;-76
2022/09/21 08:54:39;;;;;;;6.25;3.25;;;;;;;14.84;52.66;101987.72;5012071;28;20417;-77
2022/09/21 08:57:11;;;;;;;7.00;3.08;;;;;;;15.04;52.72;101986.50;5012094;28;20057;-77
2022/09/21 08:59:43;;;;;;;4.63;3.30;;;;;;;14.85;52.81;101976.78;5011563;28;20100;-77
2022/09/21 09:02:28;;;;;;;5.47;2.58;;;;;;;15.59;51.53;101986.13;5012314;28;20058;-77
2022/09/21 09:05:13;;;;;;;2.97;1.98;;;;;;;15.64;50.99;101989.25;5011420;28;20401;-77
2022/09/21 09:08:02;;;;;;;10.68;2.88;;;;;;;15.73;50.09;101992.81;5011334;28;20044;-77
2022/09/21 09:10:36;;;;;;;6.15;2.20;;;;;;;16.41;49.84;101986.38;5008502;28;20054;-74
2022/09/21 09:13:41;;;;;;;7.18;2.92;;;;;;;16.11;50.15;101985.16;4992829;28;20046;-75
2022/09/21 09:16:29;;;;;;;6.72;2.47;;;;;;;16.77;48.65;101984.22;4943037;28;20047;-74
2022/09/21 09:19:14;;;;;;;5.28;2.08;;;;;;;16.21;49.70;101990.41;4992335;28;20049;-74
2022/09/21 09:21:42;;;;;;;6.68;2.60;;;;;;;16.41;49.46;101991.81;4992862;28;20052;-75
2022/09/21 09:24:20;;;;;;;5.88;2.40;;;;;;;16.57;48.78;101989.13;4992248;28;20053;-74
2022/09/21 09:26:52;;;;;;;13.27;2.50;;;;;;;16.80;48.38;101988.44;4991496;28;20052;-74
2022/09/21 09:29:36;;;;;;;6.72;2.78;;;;;;;16.99;47.74;101990.81;4992059;28;20062;-74
2022/09/21 09:32:09;;;;;;;8.95;2.38;;;;;;;17.10;47.41;101993.16;4991772;28;20065;-74
2022/09/21 09:34:42;;;;;;;8.02;2.17;;;;;;;17.23;47.16;101991.75;4992428;28;20047;-74
2022/09/21 09:37:14;;;;;;;3.92;1.95;;;;;;;17.71;46.56;101996.19;4992248;28;20141;-74
2022/09/21 09:39:44;;;;;;;5.93;2.17;;;;;;;18.36;45.16;102000.44;4991832;28;20494;-74
2022/09/21 09:42:23;;;;;;;5.40;1.67;;;;;;;19.37;43.00;101998.34;4993076;28;20050;-75
2022/09/21 09:45:08;;;;;;;10.13;2.05;;;;;;;19.94;40.96;102001.22;4992100;28;20046;-69
2022/09/21 09:47:55;;;;;;;7.97;1.67;;;;;;;20.55;39.67;102000.84;4990387;28;22586;-71
2022/09/21 09:50:27;;;;;;;7.28;2.00;;;;;;;21.97;38.07;101999.69;4992574;28;20050;-75
2022/09/21 09:52:59;;;;;;;;;;;;;;;22.41;36.52;101995.59;4993464;28;20050;-76
2022/09/21 09:55:43;;;;;;;8.98;2.53;;;;;;;22.98;35.16;101986.81;4992921;28;19929;-76
2022/09/21 09:58:20;;;;;;;5.15;1.83;;;;;;;23.21;34.25;101994.56;4993239;28;20042;-76
2022/09/21 10:00:51;;;;;;;3.85;1.70;;;;;;;23.93;34.23;101992.66;4992690;28;20054;-75
2022/09/21 10:03:25;;;;;;;6.53;1.63;;;;;;;23.99;34.04;101990.94;5000787;28;20053;-76
2022/09/21 10:05:53;;;;;;;8.98;1.88;;;;;;;24.15;32.99;101987.66;5010201;28;20045;-77
2022/09/21 10:08:43;;;;;;;4.10;1.83;;;;;;;24.35;32.71;101983.97;5012582;28;20056;-77
2022/09/21 10:11:14;;;;;;;4.20;1.58;;;;;;;24.29;33.50;101979.38;5011755;28;20125;-75
2022/09/21 10:13:44;;;;;;;3.33;1.27;;;;;;;23.78;33.48;101985.75;5011717;28;20053;-78
2022/09/21 10:16:19;;;;;;;4.82;1.85;;;;;;;22.66;34.04;101983.00;5011781;28;20042;-75
2022/09/21 10:18:55;;;;;;;5.93;1.10;;;;;;;23.04;33.09;101979.63;5010533;28;20133;-77
2022/09/21 10:21:24;;;;;;;2.08;0.80;;;;;;;23.13;32.43;101974.81;5011464;28;20046;-77
2022/09/21 10:24:20;;;;;;;2.90;1.15;;;;;;;23.90;32.29;101978.56;5011255;28;20045;-77
2022/09/21 10:26:53;;;;;;;4.60;1.20;;;;;;;22.94;32.87;101971.00;5008326;28;20042;-76
2022/09/21 10:29:22;;;;;;;3.13;0.93;;;;;;;22.65;33.15;101969.56;5011908;28;20041;-77
2022/09/21 10:31:58;;;;;;;3.67;1.40;;;;;;;21.33;34.84;101973.56;5007171;28;20412;-66
2022/09/21 10:34:30;;;;;;;2.55;0.88;;;;;;;21.36;35.34;101968.53;5010097;28;20416;-67
2022/09/21 10:36:59;;;;;;;2.78;0.82;;;;;;;20.90;36.05;101969.06;5010253;28;20447;-71
2022/09/21 10:39:32;;;;;;;4.03;0.95;;;;;;;20.42;37.04;101973.47;5010663;28;20046;-71
2022/09/21 10:42:11;;;;;;;4.05;1.10;;;;;;;20.12;37.10;101970.00;4993225;28;20050;-71
2022/09/21 10:44:41;;;;;;;3.75;1.02;;;;;;;20.04;37.85;101970.09;5010808;28;20049;-71
2022/09/21 10:47:17;;;;;;;5.60;1.27;;;;;;;20.28;38.09;101968.88;5009807;28;20085;-71
2022/09/21 10:49:49;;;;;;;3.13;1.10;;;;;;;20.99;35.64;101967.00;5014431;28;20426;-70
2022/09/21 10:52:18;;;;;;;2.88;0.80;;;;;;;20.44;35.37;101966.78;5013825;28;20049;-71
2022/09/21 10:54:50;;;;;;;6.50;0.95;;;;;;;20.14;35.74;101967.91;5014330;28;20053;-70
2022/09/21 10:57:20;;;;;;;3.70;1.08;;;;;;;19.77;36.78;101958.91;5013325;28;20060;-68
2022/09/21 10:59:47;;;;;;;3.00;1.00;;;;;;;19.33;37.20;101959.78;5013811;28;20041;-68
2022/09/21 11:02:32;;;;;;;4.10;0.82;;;;;;;19.14;38.34;101949.44;5013988;28;20386;-68
2022/09/21 11:05:12;;;;;;;3.65;1.05;;;;;;;19.08;39.23;101955.66;5014292;28;20478;-69
2022/09/21 11:07:45;;;;;;;2.88;0.80;;;;;;;18.99;39.69;101953.00;5013957;28;20377;-70
2022/09/21 11:10:38;;;;;;;2.17;1.00;;;;;;;19.13;39.03;101945.06;5013883;28;20038;-67
2022/09/21 11:13:07;;;;;;;1.52;0.60;;;;;;;18.95;39.02;101951.69;5013881;28;20053;-70
2022/09/21 11:15:45;;;;;;;2.28;0.80;;;;;;;19.52;39.13;101947.50;5013680;28;20050;-70
2022/09/21 11:18:25;;;;;;;1.38;0.70;;;;;;;19.87;38.50;101943.13;5014235;28;20042;-70
2022/09/21 11:20:54;;;;;;;2.70;0.85;;;;;;;20.73;37.10;101943.13;5013540;28;20156;-68
2022/09/21 11:23:47;;;;;;;6.82;1.58;;;;;;;20.71;36.72;101947.91;5014154;28;20045;-69
2022/09/21 11:26:22;;;;;;;4.10;1.00;;;;;;;20.22;37.32;101948.72;5001275;28;20490;-69
2022/09/21 11:29:09;;;;;;;4.97;1.83;;;;;;;19.61;37.78;101956.38;5012740;28;20054;-67
2022/09/21 11:32:16;;;;;;;9.23;3.60;;;;;;;19.13;38.23;101950.50;5012471;28;20038;-69
2022/09/21 11:35:25;;;;;;;4.80;2.80;;;;;;;19.30;38.00;101952.00;5012705;28;20064;-69
2022/09/21 11:38:12;;;;;;;1.80;0.85;;;;;;;19.95;36.62;101953.88;5013601;28;20053;-69
2022/09/21 11:41:00;;;;;;;3.97;0.80;;;;;;;20.91;35.22;101953.53;5013677;28;20065;-67
2022/09/21 11:43:39;;;;;;;1.70;1.02;;;;;;;21.60;33.89;101947.22;5012256;28;20057;-70
2022/09/21 11:46:24;;;;;;;1.00;0.90;;;;;;;23.59;30.73;101947.25;5013254;28;20113;-69
2022/09/21 11:48:58;;;;;;;2.75;0.77;;;;;;;24.83;28.65;101942.22;5013086;28;20046;-69
2022/09/21 11:51:53;;;;;;;1.90;0.90;;;;;;;25.11;27.60;101933.53;5013048;28;20057;-70
2022/09/21 11:54:43;;;;;;;2.08;0.80;;;;;;;22.90;30.80;101942.38;5013314;28;20041;-68
2022/09/21 11:57:27;;;;;;;5.03;1.10;;;;;;;21.66;32.93;101932.72;5013623;28;20064;-68
2022/09/21 12:00:14;;;;;;;2.10;0.88;;;;;;;21.32;33.89;101933.63;5011873;28;20050;-70
2022/09/21 12:03:16;;;;;;;3.38;1.23;;;;;;;20.55;35.51;101937.28;5013001;28;20046;-69
2022/09/21 12:05:46;;;;;;;;;;;;;;;19.96;37.00;101943.81;4950007;28;20048;-69
2022/09/21 12:08:38;;;;;;;4.95;1.20;;;;;;;19.56;37.90;101928.91;4996901;28;19921;-70
2022/09/21 12:11:17;;;;;;;4.78;1.00;;;;;;;18.83;39.62;101931.41;5005171;28;20046;-70
2022/09/21 12:14:06;;;;;;;1.60;0.75;;;;;;;19.21;38.51;101928.66;4994948;28;20050;-70
2022/09/21 12:16:36;;;;;;;5.40;1.10;;;;;;;20.27;36.72;101929.06;4993416;28;20046;-70
2022/09/21 12:19:16;;;;;;;5.30;0.98;;;;;;;19.99;36.20;101923.53;4995026;28;20105;-70
2022/09/21 12:21:48;;;;;;;1.95;0.95;;;;;;;18.89;38.11;101919.78;4994634;28;20405;-70
2022/09/21 12:24:21;;;;;;;2.38;1.13;;;;;;;19.25;37.59;101919.91;4994320;28;20049;-70
2022/09/21 12:26:54;;;;;;;3.63;1.05;;;;;;;19.40;37.22;101925.34;4992733;28;20057;-69
2022/09/21 12:29:42;;;;;;;3.05;1.13;;;;;;;20.69;35.18;101917.28;4993569;28;20053;-68
2022/09/21 12:32:20;;;;;;;4.85;1.20;;;;;;;22.23;33.09;101912.31;4993188;28;20475;-68
2022/09/21 12:34:55;;;;;;;3.92;0.95;;;;;;;23.94;29.78;101914.00;4993399;28;20050;-69
2022/09/21 12:37:32;;;;;;;6.90;1.20;;;;;;;25.17;27.50;101915.31;4993007;28;20049;-69
2022/09/21 12:40:18;;;;;;;5.72;1.30;;;;;;;23.54;29.36;101921.56;4992741;28;20058;-70
2022/09/21 12:42:52;;;;;;;5.45;1.00;;;;;;;22.41;31.30;101910.84;4992014;28;20065;-68
2022/09/21 12:45:24;;;;;;;13.13;1.17;;;;;;;21.31;32.96;101916.41;4989549;28;20450;-70
2022/09/21 12:48:03;;;;;;;7.75;1.42;;;;;;;20.41;34.22;101917.25;4993287;28;20042;-70
2022/09/21 12:50:39;;;;;;;3.90;1.00;;;;;;;20.52;34.55;101916.72;4992448;28;20046;-68
2022/09/21 12:53:10;;;;;;;2.75;0.90;;;;;;;19.92;35.51;101916.13;4992429;28;20053;-69
2022/09/21 12:55:47;;;;;;;2.22;0.88;;;;;;;20.13;35.23;101912.56;4992862;28;20046;-69
2022/09/21 12:58:43;;;;;;;3.15;1.13;;;;;;;19.77;35.47;101912.63;4991861;28;20060;-68
2022/09/21 13:01:19;;;;;;;2.20;1.02;;;;;;;20.90;33.86;101913.63;4991512;28;20062;-68
2022/09/21 13:04:00;;;;;;;4.55;1.20;;;;;;;21.53;32.69;101910.88;4991651;28;20145;-68
2022/09/21 13:06:46;;;;;;;3.90;0.98;;;;;;;20.74;34.33;101909.34;4991210;28;20054;-69
2022/09/21 13:09:16;;;;;;;6.63;1.17;;;;;;;20.64;34.54;101908.84;4992462;28;20382;-68
2022/09/21 13:11:52;;;;;;;2.10;0.75;;;;;;;20.22;35.54;101896.13;5004466;28;20137;-67
2022/09/21 13:14:19;;;;;;;3.20;0.75;;;;;;;19.68;36.67;101900.16;5011149;28;20061;-68
2022/09/21 13:16:56;;;;;;;8.10;1.00;;;;;;;18.98;37.35;101896.94;5011662;28;20072;-68
2022/09/21 13:19:26;;;;;;;3.95;1.10;;;;;;;19.31;36.76;101896.56;5010859;28;20489;-68
2022/09/21 13:22:13;;;;;;;2.05;1.15;;;;;;;18.92;37.68;101904.97;5011473;28;20434;-68
2022/09/21 13:24:41;;;;;;;1.58;0.90;;;;;;;18.26;38.01;101892.00;5010958;28;20042;-69
2022/09/21 13:27:08;;;;;;;1.52;0.75;;;;;;;18.65;37.04;101895.56;5011579;28;20046;-68
2022/09/21 13:29:39;;;;;;;1.00;0.80;;;;;;;18.34;37.81;101893.81;5011110;28;20049;-68
2022/09/21 13:32:12;;;;;;;3.53;1.17;;;;;;;17.99;38.05;101887.09;5011198;28;20060;-67
2022/09/21 13:34:40;;;;;;;2.13;0.90;;;;;;;18.34;38.38;101885.66;5012240;28;20096;-65
2022/09/21 13:37:28;;;;;;;1.10;0.88;;;;;;;18.39;37.18;101891.41;5005457;28;20413;-69
2022/09/21 13:40:00;;;;;;;3.08;0.88;;;;;;;18.40;36.74;101893.09;5011557;28;20057;-69
2022/09/21 13:42:29;;;;;;;3.85;0.93;;;;;;;18.29;37.35;101885.38;4994863;28;20049;-69
2022/09/21 13:45:14;;;;;;;1.33;0.80;;;;;;;18.40;36.68;101890.38;5012483;28;20042;-68
2022/09/21 13:47:44;;;;;;;3.33;0.93;;;;;;;18.21;37.81;101893.59;5012322;28;20060;-69
2022/09/21 13:50:31;;;;;;;4.82;0.77;;;;;;;17.78;38.50;101894.03;5001809;28;20053;-69
2022/09/21 13:53:02;;;;;;;5.05;0.77;;;;;;;17.87;38.37;101894.84;5012408;28;20050;-69
2022/09/21 13:55:33;;;;;;;1.83;0.90;;;;;;;17.46;39.20;101889.66;5011620;28;20048;-70
2022/09/21 13:58:05;;;;;;;3.28;0.70;;;;;;;17.26;39.39;101891.06;5011936;28;20057;-69
2022/09/21 14:00:49;;;;;;;1.77;0.77;;;;;;;17.26;39.23;101897.31;5010455;28;20482;-68
2022/09/21 14:03:31;;;;;;;4.80;0.93;;;;;;;17.19;39.85;101882.78;5012203;28;20054;-68
2022/09/21 14:06:06;;;;;;;3.45;1.05;;;;;;;17.08;39.78;101894.03;5011939;28;20336;-69
2022/09/21 14:08:36;;;;;;;4.40;0.90;;;;;;;17.09;39.66;101893.00;5012601;28;20041;-69
2022/09/21 14:11:09;;;;;;;2.72;1.63;;;;;;;17.05;40.02;101892.50;5003887;28;20497;-69
2022/09/21 14:13:37;;;;;;;1.83;0.88;;;;;;;16.99;39.93;101884.22;4992650;28;20050;-70
2022/09/21 14:16:46;;;;;;;1.73;1.05;;;;;;;16.92;40.38;101881.38;4992054;28;20046;-68
2022/09/21 14:19:15;;;;;;;6.53;1.20;;;;;;;16.75;40.81;101877.88;4982052;28;20072;-68
2022/09/21 14:24:43;;;;;;;19.58;2.13;;;;;;;16.91;41.31;101863.41;4991362;28;20042;-68
2022/09/21 14:27:24;;;;;;;17.63;1.80;;;;;;;16.82;41.38;101869.88;4989338;28;20525;-69
2022/09/21 14:29:55;;;;;;;13.40;1.15;;;;;;;16.94;41.37;101865.78;4991856;28;20054;-69
2022/09/21 14:32:24;;;;;;;7.57;1.27;;;;;;;17.01;41.24;101860.50;4992235;28;20073;-68
2022/09/21 14:35:10;;;;;;;4.13;0.70;;;;;;;16.97;40.41;101857.28;4992041;28;20049;-69
2022/09/21 14:37:42;;;;;;;2.55;0.90;;;;;;;17.04;40.33;101852.84;4991701;28;20054;-69
2022/09/21 14:40:41;;;;;;;5.32;1.42;;;;;;;16.94;40.71;101854.94;4992051;28;20055;-70
2022/09/21 14:43:13;;;;;;;3.78;0.80;;;;;;;16.89;40.86;101851.91;4991549;28;20054;-68
2022/09/21 14:46:00;;;;;;;2.72;1.63;;;;;;;16.97;40.54;101853.75;4991794;28;20475;-68
2022/09/21 14:48:42;;;;;;;3.15;0.90;;;;;;;16.98;41.04;101853.56;4991475;28;20371;-70
2022/09/21 14:51:33;;;;;;;6.05;1.10;;;;;;;16.92;40.35;101848.84;4989800;28;20054;-68
2022/09/21 14:54:25;;;;;;;2.60;0.67;;;;;;;16.70;40.19;101845.00;4991102;28;20057;-69
2022/09/21 14:56:54;;;;;;;;;;;;;;;16.96;39.75;101850.19;4991388;28;20505;-69
2022/09/21 14:59:46;;;;;;;4.05;1.23;;;;;;;17.11;39.82;101842.16;4990861;28;19930;-68
2022/09/21 15:02:19;;;;;;;3.58;0.80;;;;;;;17.09;39.56;101844.19;4991460;28;20046;-69
2022/09/21 15:05:08;;;;;;;4.78;0.80;;;;;;;17.26;39.69;101843.09;4990801;28;20038;-69